createdAt,value
2018-05-15T00:00:21.621Z,1010.18
2018-05-15T00:01:21.611Z,1010.19
2018-05-15T00:02:21.599Z,1010.19
2018-05-15T00:03:21.602Z,1010.20
2018-05-15T00:04:21.574Z,1010.19
2018-05-15T00:05:21.564Z,1010.21
2018-05-15T00:06:21.551Z,1010.21
2018-05-15T00:07:21.539Z,1010.21
2018-05-15T00:08:21.528Z,1010.20
2018-05-15T00:09:21.530Z,1010.22
2018-05-15T00:10:21.506Z,1010.22
2018-05-15T00:11:21.492Z,1010.22
2018-05-15T00:12:21.481Z,1010.25
2018-05-15T00:13:21.468Z,1010.22
2018-05-15T00:14:21.468Z,1010.25
2018-05-15T00:15:21.442Z,1010.27
2018-05-15T00:16:21.433Z,1010.30
2018-05-15T00:17:21.425Z,1010.25
2018-05-15T00:18:21.418Z,1010.28
2018-05-15T00:19:21.396Z,1010.29
2018-05-15T00:20:21.399Z,1010.30
2018-05-15T00:21:21.368Z,1010.29
2018-05-15T00:22:21.359Z,1010.29
2018-05-15T00:23:21.346Z,1010.31
2018-05-15T00:24:21.349Z,1010.35
2018-05-15T00:25:21.319Z,1010.32
2018-05-15T00:26:21.325Z,1010.38
2018-05-15T00:27:21.303Z,1010.32
2018-05-15T00:28:21.284Z,1010.35
2018-05-15T00:29:21.303Z,1010.32
2018-05-15T00:30:21.262Z,1010.32
2018-05-15T00:31:21.248Z,1010.37
2018-05-15T00:32:21.239Z,1010.34
2018-05-15T00:33:21.222Z,1010.36
2018-05-15T00:34:21.215Z,1010.35
2018-05-15T00:35:21.215Z,1010.35
2018-05-15T00:36:21.191Z,1010.36
2018-05-15T00:37:21.177Z,1010.37
2018-05-15T00:38:21.164Z,1010.37
2018-05-15T00:39:21.168Z,1010.38
2018-05-15T00:40:21.156Z,1010.37
2018-05-15T00:41:21.130Z,1010.35
2018-05-15T00:42:21.119Z,1010.36
2018-05-15T00:43:21.106Z,1010.34
2018-05-15T00:44:21.192Z,1010.32
2018-05-15T00:45:21.096Z,1010.34
2018-05-15T00:46:21.075Z,1010.33
2018-05-15T00:47:21.057Z,1010.31
2018-05-15T00:48:21.043Z,1010.29
2018-05-15T00:49:21.034Z,1010.28
2018-05-15T00:50:21.046Z,1010.30
2018-05-15T00:51:21.008Z,1010.36
2018-05-15T00:52:20.995Z,1010.30
2018-05-15T00:53:20.982Z,1010.33
2018-05-15T00:54:20.972Z,1010.34
2018-05-15T00:55:20.957Z,1010.33
2018-05-15T00:56:20.957Z,1010.35
2018-05-15T00:57:20.938Z,1010.31
2018-05-15T00:58:20.922Z,1010.33
2018-05-15T00:59:20.911Z,1010.32
2018-05-15T01:00:20.897Z,1010.31
2018-05-15T01:01:20.901Z,1010.35
2018-05-15T01:02:20.873Z,1010.33
2018-05-15T01:03:20.863Z,1010.34
2018-05-15T01:04:20.848Z,1010.35
2018-05-15T01:05:20.838Z,1010.32
2018-05-15T01:06:20.840Z,1010.33
2018-05-15T01:07:20.808Z,1010.33
2018-05-15T01:08:20.800Z,1010.34
2018-05-15T01:09:20.788Z,1010.37
2018-05-15T01:10:20.775Z,1010.36
2018-05-15T01:11:20.782Z,1010.33
2018-05-15T01:12:20.768Z,1010.33
2018-05-15T01:13:20.741Z,1010.35
2018-05-15T01:14:20.741Z,1010.32
2018-05-15T01:15:20.714Z,1010.31
2018-05-15T01:16:20.702Z,1010.32
2018-05-15T01:17:20.704Z,1010.33
2018-05-15T01:18:20.694Z,1010.30
2018-05-15T01:19:20.664Z,1010.30
2018-05-15T01:20:20.653Z,1010.28
2018-05-15T01:21:20.644Z,1010.30
2018-05-15T01:22:20.629Z,1010.30
2018-05-15T01:23:20.627Z,1010.31
2018-05-15T01:24:20.620Z,1010.29
2018-05-15T01:25:20.593Z,1010.33
2018-05-15T01:26:20.579Z,1010.35
2018-05-15T01:27:20.578Z,1010.33
2018-05-15T01:28:20.551Z,1010.32
2018-05-15T01:29:20.557Z,1010.32
2018-05-15T01:30:20.530Z,1010.36
2018-05-15T01:31:20.514Z,1010.33
2018-05-15T01:32:20.512Z,1010.32
2018-05-15T01:33:20.492Z,1010.36
2018-05-15T01:34:20.484Z,1010.36
2018-05-15T01:35:20.484Z,1010.35
2018-05-15T01:36:20.455Z,1010.38
2018-05-15T01:37:20.439Z,1010.34
2018-05-15T01:38:20.431Z,1010.39
2018-05-15T01:39:20.421Z,1010.42
2018-05-15T01:40:20.424Z,1010.40
2018-05-15T01:41:20.396Z,1010.38
2018-05-15T01:42:20.383Z,1010.38
2018-05-15T01:43:20.384Z,1010.39
2018-05-15T01:44:20.355Z,1010.37
2018-05-15T01:45:20.379Z,1010.38
2018-05-15T01:46:20.330Z,1010.38
2018-05-15T01:47:20.318Z,1010.42
2018-05-15T01:48:20.311Z,1010.41
2018-05-15T01:49:20.299Z,1010.44
2018-05-15T01:50:20.283Z,1010.42
2018-05-15T01:51:20.279Z,1010.41
2018-05-15T01:52:20.273Z,1010.42
2018-05-15T01:53:20.258Z,1010.39
2018-05-15T01:54:20.231Z,1010.40
2018-05-15T01:55:20.218Z,1010.37
2018-05-15T01:56:20.216Z,1010.39
2018-05-15T01:57:20.211Z,1010.35
2018-05-15T01:58:20.219Z,1010.34
2018-05-15T01:59:20.168Z,1010.33
2018-05-15T02:00:20.155Z,1010.35
2018-05-15T02:01:20.138Z,1010.33
2018-05-15T02:02:20.128Z,1010.34
2018-05-15T02:03:20.118Z,1010.32
2018-05-15T02:04:20.120Z,1010.35
2018-05-15T02:05:20.087Z,1010.35
2018-05-15T02:06:20.078Z,1010.36
2018-05-15T02:07:20.062Z,1010.36
2018-05-15T02:08:20.054Z,1010.33
2018-05-15T02:09:20.058Z,1010.37
2018-05-15T02:10:20.028Z,1010.37
2018-05-15T02:11:20.013Z,1010.38
2018-05-15T02:12:20.002Z,1010.38
2018-05-15T02:13:19.999Z,1010.39
2018-05-15T02:14:20.000Z,1010.40
2018-05-15T02:15:19.969Z,1010.44
2018-05-15T02:16:19.950Z,1010.45
2018-05-15T02:17:19.937Z,1010.44
2018-05-15T02:18:19.928Z,1010.48
2018-05-15T02:19:19.913Z,1010.43
2018-05-15T02:20:19.916Z,1010.46
2018-05-15T02:21:19.887Z,1010.48
2018-05-15T02:22:19.888Z,1010.45
2018-05-15T02:23:19.861Z,1010.45
2018-05-15T02:24:19.846Z,1010.48
2018-05-15T02:25:19.834Z,1010.48
2018-05-15T02:26:19.821Z,1010.44
2018-05-15T02:27:19.824Z,1010.45
2018-05-15T02:28:19.798Z,1010.48
2018-05-15T02:29:19.785Z,1010.47
2018-05-15T02:30:19.854Z,1010.47
2018-05-15T02:31:19.756Z,1010.47
2018-05-15T02:32:19.761Z,1010.45
2018-05-15T02:33:19.740Z,1010.48
2018-05-15T02:34:19.721Z,1010.52
2018-05-15T02:35:19.708Z,1010.53
2018-05-15T02:36:19.711Z,1010.52
2018-05-15T02:37:19.695Z,1010.48
2018-05-15T02:38:19.667Z,1010.46
2018-05-15T02:39:19.654Z,1010.45
2018-05-15T02:40:19.642Z,1010.47
2018-05-15T02:41:19.625Z,1010.49
2018-05-15T02:42:19.624Z,1010.50
2018-05-15T02:43:19.602Z,1010.49
2018-05-15T02:44:19.590Z,1010.50
2018-05-15T02:45:19.574Z,1010.48
2018-05-15T02:46:19.564Z,1010.52
2018-05-15T02:47:19.559Z,1010.52
2018-05-15T02:48:19.536Z,1010.50
2018-05-15T02:49:19.538Z,1010.52
2018-05-15T02:50:19.512Z,1010.52
2018-05-15T02:51:19.500Z,1010.52
2018-05-15T02:52:19.482Z,1010.52
2018-05-15T02:53:19.470Z,1010.51
2018-05-15T02:54:19.489Z,1010.51
2018-05-15T02:55:19.444Z,1010.53
2018-05-15T02:56:19.432Z,1010.54
2018-05-15T02:57:19.417Z,1010.49
2018-05-15T02:58:19.405Z,1010.51
2018-05-15T02:59:19.399Z,1010.50
2018-05-15T03:00:19.393Z,1010.48
2018-05-15T03:01:19.376Z,1010.52
2018-05-15T03:02:19.350Z,1010.54
2018-05-15T03:03:19.338Z,1010.54
2018-05-15T03:04:19.324Z,1010.55
2018-05-15T03:05:19.312Z,1010.55
2018-05-15T03:06:19.314Z,1010.56
2018-05-15T03:07:19.283Z,1010.54
2018-05-15T03:08:19.269Z,1010.54
2018-05-15T03:09:19.257Z,1010.53
2018-05-15T03:10:19.272Z,1010.52
2018-05-15T03:11:19.226Z,1010.55
2018-05-15T03:12:19.217Z,1010.54
2018-05-15T03:13:19.204Z,1010.59
2018-05-15T03:14:19.190Z,1010.57
2018-05-15T03:15:19.179Z,1010.58
2018-05-15T03:16:19.181Z,1010.58
2018-05-15T03:17:19.150Z,1010.59
2018-05-15T03:18:19.138Z,1010.61
2018-05-15T03:19:19.126Z,1010.57
2018-05-15T03:20:19.110Z,1010.57
2018-05-15T03:21:19.125Z,1010.59
2018-05-15T03:22:19.082Z,1010.61
2018-05-15T03:23:19.075Z,1010.62
2018-05-15T03:24:19.058Z,1010.61
2018-05-15T03:25:19.041Z,1010.65
2018-05-15T03:26:19.026Z,1010.66
2018-05-15T03:27:19.035Z,1010.69
2018-05-15T03:28:19.003Z,1010.70
2018-05-15T03:29:18.992Z,1010.74
2018-05-15T03:30:18.991Z,1010.71
2018-05-15T03:31:18.961Z,1010.72
2018-05-15T03:32:18.961Z,1010.73
2018-05-15T03:33:18.937Z,1010.77
2018-05-15T03:34:18.921Z,1010.78
2018-05-15T03:35:18.910Z,1010.79
2018-05-15T03:36:18.897Z,1010.79
2018-05-15T03:37:18.898Z,1010.78
2018-05-15T03:38:18.896Z,1010.80
2018-05-15T03:39:18.855Z,1010.82
2018-05-15T03:40:18.849Z,1010.79
2018-05-15T03:41:18.833Z,1010.80
2018-05-15T03:42:18.813Z,1010.83
2018-05-15T03:43:18.799Z,1010.79
2018-05-15T03:44:18.802Z,1010.81
2018-05-15T03:45:18.771Z,1010.79
2018-05-15T03:46:18.761Z,1010.82
2018-05-15T03:47:18.746Z,1010.81
2018-05-15T03:48:18.754Z,1010.81
2018-05-15T03:49:18.722Z,1010.81
2018-05-15T03:50:18.704Z,1010.85
2018-05-15T03:51:18.692Z,1010.86
2018-05-15T03:52:18.678Z,1010.88
2018-05-15T03:53:18.665Z,1010.88
2018-05-15T03:54:18.665Z,1010.93
2018-05-15T03:55:18.655Z,1010.88
2018-05-15T03:56:18.621Z,1010.92
2018-05-15T03:57:18.608Z,1010.91
2018-05-15T03:58:18.597Z,1010.92
2018-05-15T03:59:18.583Z,1010.93
2018-05-15T04:00:18.654Z,1010.94
2018-05-15T04:01:18.563Z,1010.99
2018-05-15T04:02:18.607Z,1010.97
2018-05-15T04:03:18.528Z,1010.98
2018-05-15T04:04:18.515Z,1011.01
2018-05-15T04:05:18.499Z,1010.99
2018-05-15T04:06:18.502Z,1010.97
2018-05-15T04:07:18.471Z,1010.98
2018-05-15T04:08:18.461Z,1010.99
2018-05-15T04:09:18.441Z,1010.98
2018-05-15T04:10:18.433Z,1010.98
2018-05-15T04:11:18.418Z,1010.97
2018-05-15T04:12:18.422Z,1010.98
2018-05-15T04:13:18.391Z,1010.99
2018-05-15T04:14:18.376Z,1011.02
2018-05-15T04:15:18.364Z,1011.02
2018-05-15T04:16:18.350Z,1011.00
2018-05-15T04:17:18.351Z,1011.01
2018-05-15T04:18:18.329Z,1011.01
2018-05-15T04:19:18.310Z,1011.04
2018-05-15T04:20:18.312Z,1011.05
2018-05-15T04:21:18.283Z,1011.01
2018-05-15T04:22:18.283Z,1011.05
2018-05-15T04:23:18.256Z,1011.06
2018-05-15T04:24:18.241Z,1011.07
2018-05-15T04:25:18.257Z,1011.07
2018-05-15T04:26:18.219Z,1011.02
2018-05-15T04:27:18.205Z,1011.04
2018-05-15T04:28:18.316Z,1011.07
2018-05-15T04:29:18.173Z,1011.05
2018-05-15T04:30:18.165Z,1011.06
2018-05-15T04:31:18.165Z,1011.04
2018-05-15T04:32:18.138Z,1011.07
2018-05-15T04:33:18.125Z,1011.07
2018-05-15T04:34:18.108Z,1011.07
2018-05-15T04:35:18.248Z,1011.11
2018-05-15T04:36:18.100Z,1011.12
2018-05-15T04:37:18.073Z,1011.14
2018-05-15T04:38:18.081Z,1011.11
2018-05-15T04:39:18.048Z,1011.15
2018-05-15T04:40:18.035Z,1011.15
2018-05-15T04:41:18.026Z,1011.15
2018-05-15T04:42:18.012Z,1011.17
2018-05-15T04:43:17.998Z,1011.14
2018-05-15T04:44:18.003Z,1011.14
2018-05-15T04:45:17.971Z,1011.12
2018-05-15T04:46:17.961Z,1011.16
2018-05-15T04:47:17.947Z,1011.14
2018-05-15T04:48:17.935Z,1011.15
2018-05-15T04:49:17.986Z,1011.12
2018-05-15T04:50:20.897Z,1011.17
2018-05-15T04:51:17.896Z,1011.19
2018-05-15T04:52:17.882Z,1011.17
2018-05-15T04:53:17.873Z,1011.14
2018-05-15T04:54:17.858Z,1011.21
2018-05-15T04:55:17.861Z,1011.22
2018-05-15T04:56:17.849Z,1011.23
2018-05-15T04:57:17.821Z,1011.21
2018-05-15T04:58:17.808Z,1011.20
2018-05-15T04:59:17.795Z,1011.21
2018-05-15T05:00:17.785Z,1011.22
2018-05-15T05:01:17.804Z,1011.23
2018-05-15T05:02:17.761Z,1011.27
2018-05-15T05:03:17.745Z,1011.28
2018-05-15T05:04:17.731Z,1011.26
2018-05-15T05:05:17.722Z,1011.28
2018-05-15T05:06:17.710Z,1011.29
2018-05-15T05:07:17.709Z,1011.27
2018-05-15T05:08:17.684Z,1011.34
2018-05-15T05:09:17.685Z,1011.37
2018-05-15T05:10:17.662Z,1011.36
2018-05-15T05:11:17.643Z,1011.39
2018-05-15T05:12:17.633Z,1011.41
2018-05-15T05:13:17.640Z,1011.47
2018-05-15T05:14:17.607Z,1011.44
2018-05-15T05:15:17.594Z,1011.45
2018-05-15T05:16:17.582Z,1011.46
2018-05-15T05:17:17.568Z,1011.46
2018-05-15T05:18:17.557Z,1011.45
2018-05-15T05:19:17.559Z,1011.45
2018-05-15T05:20:17.533Z,1011.45
2018-05-15T05:21:17.515Z,1011.47
2018-05-15T05:22:17.507Z,1011.49
2018-05-15T05:23:17.492Z,1011.50
2018-05-15T05:24:17.497Z,1011.53
2018-05-15T05:25:17.483Z,1011.52
2018-05-15T05:26:17.462Z,1011.56
2018-05-15T05:27:17.461Z,1011.57
2018-05-15T05:28:17.429Z,1011.55
2018-05-15T05:29:17.420Z,1011.54
2018-05-15T05:30:17.424Z,1011.56
2018-05-15T05:31:17.394Z,1011.57
2018-05-15T05:32:17.382Z,1011.60
2018-05-15T05:33:17.389Z,1011.59
2018-05-15T05:34:17.358Z,1011.59
2018-05-15T05:35:17.363Z,1011.63
2018-05-15T05:36:17.350Z,1011.60
2018-05-15T05:37:17.321Z,1011.64
2018-05-15T05:38:17.311Z,1011.64
2018-05-15T05:39:17.296Z,1011.67
2018-05-15T05:40:17.284Z,1011.64
2018-05-15T05:41:17.287Z,1011.69
2018-05-15T05:42:17.261Z,1011.74
2018-05-15T05:43:17.245Z,1011.74
2018-05-15T05:44:17.236Z,1011.74
2018-05-15T05:45:17.241Z,1011.78
2018-05-15T05:46:17.236Z,1011.78
2018-05-15T05:47:17.216Z,1011.78
2018-05-15T05:48:17.187Z,1011.81
2018-05-15T05:49:17.177Z,1011.82
2018-05-15T05:50:17.179Z,1011.83
2018-05-15T05:51:17.149Z,1011.83
2018-05-15T05:52:17.163Z,1011.84
2018-05-15T05:53:17.129Z,1011.83
2018-05-15T05:54:17.132Z,1011.85
2018-05-15T05:55:17.101Z,1011.84
2018-05-15T05:56:17.092Z,1011.84
2018-05-15T05:57:17.095Z,1011.89
2018-05-15T05:58:17.068Z,1011.86
2018-05-15T05:59:17.057Z,1011.91
2018-05-15T06:00:17.043Z,1011.93
2018-05-15T06:01:17.033Z,1011.94
2018-05-15T06:02:17.033Z,1011.94
2018-05-15T06:03:17.007Z,1011.92
2018-05-15T06:04:16.998Z,1011.97
2018-05-15T06:05:16.984Z,1011.94
2018-05-15T06:06:16.974Z,1011.95
2018-05-15T06:07:16.985Z,1011.95
2018-05-15T06:08:16.949Z,1012.00
2018-05-15T06:09:16.936Z,1011.97
2018-05-15T06:10:16.943Z,1011.92
2018-05-15T06:11:16.912Z,1011.96
2018-05-15T06:12:16.903Z,1011.92
2018-05-15T06:13:16.886Z,1011.97
2018-05-15T06:14:16.920Z,1011.93
2018-05-15T06:15:16.877Z,1011.89
2018-05-15T06:16:16.871Z,1011.91
2018-05-15T06:17:16.840Z,1011.92
2018-05-15T06:18:16.829Z,1011.93
2018-05-15T06:19:16.825Z,1011.93
2018-05-15T06:20:16.807Z,1011.96
2018-05-15T06:21:16.797Z,1012.01
2018-05-15T06:22:16.799Z,1012.01
2018-05-15T06:23:16.783Z,1012.03
2018-05-15T06:24:16.757Z,1012.01
2018-05-15T06:25:16.745Z,1012.01
2018-05-15T06:26:16.750Z,1012.02
2018-05-15T06:27:16.723Z,1012.02
2018-05-15T06:28:16.719Z,1012.02
2018-05-15T06:29:16.703Z,1012.03
2018-05-15T06:30:16.684Z,1012.02
2018-05-15T06:31:16.692Z,1012.02
2018-05-15T06:32:16.684Z,1012.03
2018-05-15T06:33:16.654Z,1012.02
2018-05-15T06:34:16.641Z,1012.03
2018-05-15T06:35:16.629Z,1012.02
2018-05-15T06:36:16.617Z,1012.05
2018-05-15T06:37:16.608Z,1012.04
2018-05-15T06:38:16.627Z,1012.06
2018-05-15T06:39:16.583Z,1012.03
2018-05-15T06:40:16.576Z,1012.02
2018-05-15T06:41:16.556Z,1012.02
2018-05-15T06:42:16.545Z,1012.03
2018-05-15T06:43:16.537Z,1012.05
2018-05-15T06:44:16.543Z,1012.00
2018-05-15T06:45:16.515Z,1012.02
2018-05-15T06:46:16.506Z,1012.02
2018-05-15T06:47:16.492Z,1012.03
2018-05-15T06:48:16.496Z,1012.01
2018-05-15T06:49:16.471Z,1012.04
2018-05-15T06:50:16.459Z,1012.04
2018-05-15T06:51:16.444Z,1012.06
2018-05-15T06:52:16.433Z,1012.07
2018-05-15T06:53:16.424Z,1012.06
2018-05-15T06:54:16.430Z,1012.09
2018-05-15T06:55:16.401Z,1012.08
2018-05-15T06:56:16.473Z,1012.07
2018-05-15T06:57:16.379Z,1012.07
2018-05-15T06:58:16.380Z,1012.09
2018-05-15T06:59:16.371Z,1012.07
2018-05-15T07:00:16.341Z,1012.14
2018-05-15T07:01:37.345Z,1012.13
2018-05-15T07:02:16.323Z,1012.17
2018-05-15T07:03:16.309Z,1012.15
2018-05-15T07:04:16.317Z,1012.17
2018-05-15T07:05:16.287Z,1012.16
2018-05-15T07:06:16.276Z,1012.18
2018-05-15T07:07:16.266Z,1012.20
2018-05-15T07:08:16.254Z,1012.26
2018-05-15T07:09:16.241Z,1012.44
2018-05-15T07:10:16.250Z,1012.72
2018-05-15T07:11:16.219Z,1012.95
2018-05-15T07:12:16.253Z,1013.29
2018-05-15T07:13:16.200Z,1012.84
2018-05-15T07:14:16.187Z,1012.52
2018-05-15T07:15:16.175Z,1012.54
2018-05-15T07:16:16.183Z,1012.34
2018-05-15T07:17:16.149Z,1012.34
2018-05-15T07:18:16.145Z,1012.46
2018-05-15T07:19:16.220Z,1012.41
2018-05-15T07:20:16.121Z,1012.28
2018-05-15T07:21:16.114Z,1012.30
2018-05-15T07:22:16.123Z,1012.23
2018-05-15T07:23:16.089Z,1012.23
2018-05-15T07:24:16.078Z,1012.26
2018-05-15T07:25:16.067Z,1012.30
2018-05-15T07:26:16.058Z,1012.26
2018-05-15T07:27:16.119Z,1012.25
2018-05-15T07:28:16.046Z,1012.23
2018-05-15T07:29:16.024Z,1012.29
2018-05-15T07:30:16.016Z,1012.20
2018-05-15T07:31:16.002Z,1012.21
2018-05-15T07:32:16.006Z,1012.23
2018-05-15T07:33:16.139Z,1012.20
2018-05-15T07:34:15.971Z,1012.20
2018-05-15T07:35:15.961Z,1012.20
2018-05-15T07:36:15.964Z,1012.28
2018-05-15T07:37:15.955Z,1012.28
2018-05-15T07:38:15.927Z,1012.29
2018-05-15T07:39:15.916Z,1012.28
2018-05-15T07:40:15.984Z,1012.27
2018-05-15T07:41:15.898Z,1012.26
2018-05-15T07:42:15.904Z,1012.25
2018-05-15T07:43:15.924Z,1012.26
2018-05-15T07:44:15.864Z,1012.28
2018-05-15T07:45:15.858Z,1012.23
2018-05-15T07:46:15.854Z,1012.23
2018-05-15T07:47:15.831Z,1012.22
2018-05-15T07:48:15.877Z,1012.26
2018-05-15T07:49:15.815Z,1012.26
2018-05-15T07:50:15.802Z,1012.30
2018-05-15T07:51:15.808Z,1012.26
2018-05-15T07:52:15.783Z,1012.29
2018-05-15T07:53:15.775Z,1012.29
2018-05-15T07:54:15.762Z,1012.27
2018-05-15T07:55:15.747Z,1012.28
2018-05-15T07:56:15.741Z,1012.30
2018-05-15T07:57:15.743Z,1012.29
2018-05-15T07:58:15.736Z,1012.34
2018-05-15T07:59:15.709Z,1012.34
2018-05-15T08:00:15.713Z,1012.34
2018-05-15T08:01:15.688Z,1012.37
2018-05-15T08:02:15.676Z,1012.33
2018-05-15T08:03:15.665Z,1012.36
2018-05-15T08:04:15.655Z,1012.33
2018-05-15T08:05:15.659Z,1012.35
2018-05-15T08:06:15.636Z,1012.34
2018-05-15T08:07:15.629Z,1012.41
2018-05-15T08:08:15.616Z,1012.36
2018-05-15T08:09:15.604Z,1012.41
2018-05-15T08:10:15.607Z,1012.35
2018-05-15T08:11:36.591Z,1012.34
2018-05-15T08:12:15.569Z,1012.33
2018-05-15T08:13:15.561Z,1012.33
2018-05-15T08:14:15.552Z,1012.31
2018-05-15T08:15:15.560Z,1012.37
2018-05-15T08:16:15.574Z,1012.37
2018-05-15T08:17:15.522Z,1012.37
2018-05-15T08:18:15.512Z,1012.40
2018-05-15T08:19:15.504Z,1012.36
2018-05-15T08:20:15.508Z,1012.37
2018-05-15T08:21:15.484Z,1012.41
2018-05-15T08:22:15.534Z,1012.36
2018-05-15T08:23:15.462Z,1012.41
2018-05-15T08:24:15.453Z,1012.41
2018-05-15T08:25:15.459Z,1012.39
2018-05-15T08:26:15.428Z,1012.38
2018-05-15T08:27:15.441Z,1012.40
2018-05-15T08:28:15.413Z,1012.37
2018-05-15T08:29:15.402Z,1012.38
2018-05-15T08:30:15.391Z,1012.38
2018-05-15T08:31:15.380Z,1012.35
2018-05-15T08:32:15.374Z,1012.37
2018-05-15T08:33:18.581Z,1012.36
2018-05-15T08:34:20.605Z,1012.42
2018-05-15T08:35:16.983Z,1012.38
2018-05-15T08:36:15.336Z,1012.40
2018-05-15T08:37:15.362Z,1012.44
2018-05-15T08:38:15.330Z,1012.46
2018-05-15T08:39:15.298Z,1012.46
2018-05-15T08:40:15.294Z,1012.47
2018-05-15T08:41:15.281Z,1012.47
2018-05-15T08:42:15.272Z,1012.47
2018-05-15T08:43:15.278Z,1012.47
2018-05-15T08:44:15.269Z,1012.43
2018-05-15T08:45:15.261Z,1012.44
2018-05-15T08:46:15.231Z,1012.39
2018-05-15T08:47:15.223Z,1012.43
2018-05-15T08:48:15.215Z,1012.45
2018-05-15T08:49:15.218Z,1012.44
2018-05-15T08:50:15.468Z,1012.46
2018-05-15T08:51:15.192Z,1012.42
2018-05-15T08:52:15.173Z,1012.47
2018-05-15T08:53:15.193Z,1012.45
2018-05-15T08:54:15.160Z,1012.47
2018-05-15T08:55:15.147Z,1012.46
2018-05-15T08:56:15.151Z,1012.39
2018-05-15T08:57:15.132Z,1012.46
2018-05-15T08:58:15.134Z,1012.44
2018-05-15T08:59:15.123Z,1012.44
2018-05-15T09:00:15.100Z,1012.45
2018-05-15T09:01:15.127Z,1012.50
2018-05-15T09:02:15.109Z,1012.40
2018-05-15T09:03:15.071Z,1012.41
2018-05-15T09:04:15.081Z,1012.35
2018-05-15T09:05:15.058Z,1012.35
2018-05-15T09:06:15.045Z,1012.40
2018-05-15T09:07:15.050Z,1012.40
2018-05-15T09:08:15.026Z,1012.48
2018-05-15T09:09:15.017Z,1012.41
2018-05-15T09:10:15.027Z,1012.46
2018-05-15T09:11:15.046Z,1012.52
2018-05-15T09:12:14.993Z,1012.58
2018-05-15T09:13:14.979Z,1012.59
2018-05-15T09:14:14.976Z,1012.48
2018-05-15T09:15:14.982Z,1012.59
2018-05-15T09:16:14.965Z,1012.72
2018-05-15T09:17:14.960Z,1012.72
2018-05-15T09:18:14.966Z,1012.79
2018-05-15T09:19:14.996Z,1012.84
2018-05-15T09:20:14.919Z,1012.72
2018-05-15T11:30:07.399Z,1012.50
2018-05-15T11:31:07.394Z,1012.54
2018-05-15T11:32:07.381Z,1012.54
2018-05-15T11:33:07.384Z,1012.58
2018-05-15T11:34:07.387Z,1012.46
2018-05-15T11:35:07.403Z,1012.56
2018-05-15T11:36:07.390Z,1012.63
2018-05-15T11:37:07.389Z,1012.62
2018-05-15T11:38:07.408Z,1012.47
2018-05-15T11:39:07.395Z,1012.56
2018-05-15T11:40:07.402Z,1012.53
2018-05-15T11:41:07.400Z,1012.46
2018-05-15T11:42:07.402Z,1012.37
2018-05-15T11:43:07.422Z,1012.45
2018-05-15T11:44:07.406Z,1012.41
2018-05-15T11:45:07.406Z,1012.43
2018-05-15T11:46:07.414Z,1012.39
2018-05-15T11:47:07.412Z,1012.50
2018-05-15T11:48:07.778Z,1012.50
2018-05-15T11:49:08.029Z,1012.51
2018-05-15T11:50:07.943Z,1012.48
2018-05-15T11:51:08.100Z,1012.47
2018-05-15T11:52:08.307Z,1012.44
2018-05-15T11:53:08.225Z,1012.42
2018-05-15T11:54:07.439Z,1012.23
2018-05-15T11:55:07.444Z,1012.34
2018-05-15T11:56:07.428Z,1012.48
2018-05-15T11:57:07.429Z,1012.45
2018-05-15T11:58:07.538Z,1012.47
2018-05-15T11:59:07.457Z,1012.29
2018-05-15T12:00:07.487Z,1012.30
2018-05-15T12:01:07.438Z,1012.50
2018-05-15T12:02:07.435Z,1012.47
2018-05-15T12:03:07.435Z,1012.51
2018-05-15T12:04:07.463Z,1012.55
2018-05-15T12:05:07.437Z,1012.50
2018-05-15T12:06:07.440Z,1012.48
2018-05-15T12:07:07.440Z,1012.46
2018-05-15T12:08:07.527Z,1012.41
2018-05-15T12:09:07.545Z,1012.43
2018-05-15T12:10:07.439Z,1012.45
2018-05-15T12:11:07.443Z,1012.39
2018-05-15T12:12:07.443Z,1012.43
2018-05-15T12:13:07.474Z,1012.23
2018-05-15T12:14:07.444Z,1012.24
2018-05-15T12:15:07.504Z,1012.24
2018-05-15T12:16:07.473Z,1012.18
2018-05-15T12:17:07.447Z,1012.21
2018-05-15T12:18:07.448Z,1012.29
2018-05-15T12:19:07.459Z,1012.44
2018-05-15T12:20:07.445Z,1012.50
2018-05-15T12:21:07.460Z,1012.21
2018-05-15T12:22:07.445Z,1012.48
2018-05-15T12:23:07.440Z,1012.49
2018-05-15T12:24:07.450Z,1012.52
2018-05-15T12:25:07.441Z,1012.50
2018-05-15T12:26:07.435Z,1012.51
2018-05-15T12:27:07.439Z,1012.50
2018-05-15T12:28:07.521Z,1012.51
2018-05-15T12:29:07.459Z,1012.49
2018-05-15T12:30:07.434Z,1012.42
2018-05-15T12:31:07.433Z,1012.48
2018-05-15T12:32:07.433Z,1012.42
2018-05-15T12:33:07.436Z,1012.45
2018-05-15T12:34:07.434Z,1012.39
2018-05-15T12:35:07.451Z,1012.43
2018-05-15T12:36:07.433Z,1012.37
2018-05-15T12:37:07.431Z,1012.38
2018-05-15T12:38:07.433Z,1012.40
2018-05-15T12:39:07.434Z,1012.31
2018-05-15T12:40:07.450Z,1012.27
2018-05-15T12:41:07.434Z,1012.27
2018-05-15T12:42:07.593Z,1012.29
2018-05-15T12:43:07.433Z,1012.40
2018-05-15T12:44:07.433Z,1012.44
2018-05-15T12:45:07.449Z,1012.39
2018-05-15T12:46:07.435Z,1012.36
2018-05-15T12:47:07.440Z,1012.36
2018-05-15T12:48:07.505Z,1012.30
2018-05-15T12:49:07.437Z,1012.31
2018-05-15T12:50:07.437Z,1012.30
2018-05-15T12:51:07.438Z,1012.29
2018-05-15T12:52:07.439Z,1012.30
2018-05-15T12:53:07.460Z,1012.30
2018-05-15T12:54:07.531Z,1012.32
2018-05-15T12:55:07.441Z,1012.32
2018-05-15T12:56:07.458Z,1012.33
2018-05-15T12:57:07.449Z,1012.29
2018-05-15T12:58:07.462Z,1012.28
2018-05-15T12:59:07.456Z,1012.33
2018-05-15T13:00:07.450Z,1012.30
2018-05-15T13:01:07.445Z,1012.26
2018-05-15T13:02:07.446Z,1012.27
2018-05-15T13:03:07.457Z,1012.27
2018-05-15T13:04:07.469Z,1012.32
2018-05-15T13:05:07.454Z,1012.30
2018-05-15T13:06:07.450Z,1012.27
2018-05-15T13:07:08.054Z,1012.28
2018-05-15T13:08:07.450Z,1012.24
2018-05-15T13:09:07.449Z,1012.19
2018-05-15T13:10:07.471Z,1012.27
2018-05-15T13:11:07.451Z,1012.23
2018-05-15T13:12:07.451Z,1012.24
2018-05-15T13:13:07.450Z,1012.07
2018-05-15T13:14:07.454Z,1012.05
2018-05-15T13:15:07.453Z,1012.01
2018-05-15T13:16:07.470Z,1012.00
2018-05-15T13:17:07.457Z,1012.00
2018-05-15T13:18:07.449Z,1012.10
2018-05-15T13:19:07.449Z,1012.10
2018-05-15T13:20:07.446Z,1012.04
2018-05-15T13:21:07.459Z,1012.14
2018-05-15T13:22:07.444Z,1012.12
2018-05-15T13:23:07.447Z,1012.09
2018-05-15T13:24:07.439Z,1012.08
2018-05-15T13:25:07.440Z,1012.12
2018-05-15T13:26:07.452Z,1012.08
2018-05-15T13:27:07.434Z,1012.09
2018-05-15T13:28:07.435Z,1012.08
2018-05-15T13:29:07.434Z,1012.04
2018-05-15T13:30:07.430Z,1011.92
2018-05-15T13:31:07.442Z,1011.91
2018-05-15T13:32:07.427Z,1011.88
2018-05-15T13:33:07.425Z,1011.90
2018-05-15T13:34:07.424Z,1011.86
2018-05-15T13:35:07.418Z,1011.85
2018-05-15T13:36:07.434Z,1011.83
2018-05-15T13:37:07.411Z,1011.92
2018-05-15T13:38:07.414Z,1011.91
2018-05-15T13:39:07.407Z,1011.91
2018-05-15T13:40:07.405Z,1011.91
2018-05-15T13:41:07.500Z,1011.89
2018-05-15T13:42:07.402Z,1011.90
2018-05-15T13:43:07.411Z,1011.86
2018-05-15T13:44:07.402Z,1011.88
2018-05-15T13:45:07.392Z,1011.89
2018-05-15T13:46:07.386Z,1011.89
2018-05-15T13:47:07.382Z,1011.90
2018-05-15T13:48:07.383Z,1011.83
2018-05-15T13:49:07.394Z,1011.81
2018-05-15T13:50:07.372Z,1011.75
2018-05-15T13:51:07.370Z,1011.76
2018-05-15T13:52:07.367Z,1011.77
2018-05-15T13:53:07.363Z,1011.67
2018-05-15T13:54:07.373Z,1011.70
2018-05-15T13:55:07.354Z,1011.70
2018-05-15T13:56:07.352Z,1011.70
2018-05-15T13:57:07.347Z,1011.66
2018-05-15T13:58:07.348Z,1011.64
2018-05-15T13:59:07.354Z,1011.73
2018-05-15T14:00:07.338Z,1011.62
2018-05-15T14:01:07.334Z,1011.66
2018-05-15T14:02:07.332Z,1011.67
2018-05-15T14:03:07.343Z,1011.62
2018-05-15T14:04:07.319Z,1011.63
2018-05-15T14:05:07.318Z,1011.75
2018-05-15T14:06:07.315Z,1011.73
2018-05-15T14:07:07.309Z,1011.72
2018-05-15T14:08:07.301Z,1011.71
2018-05-15T14:09:07.310Z,1011.68
2018-05-15T14:10:07.293Z,1011.71
2018-05-15T14:11:07.290Z,1011.60
2018-05-15T14:12:07.287Z,1011.65
2018-05-15T14:13:07.281Z,1011.66
2018-05-15T14:14:07.277Z,1011.64